sensor_id;sensor_type;location;lat;lon;timestamp;P1;durP1;ratioP1;P2;durP2;ratioP2
51907;SDS011;39320;53.214;6.556;2023-11-21T00:00:31;4.32;;;2.65;;
51907;SDS011;39320;53.214;6.556;2023-11-21T00:02:57;4.70;;;2.70;;
51907;SDS011;39320;53.214;6.556;2023-11-21T00:05:22;4.63;;;2.80;;
51907;SDS011;39320;53.214;6.556;2023-11-21T00:07:48;4.18;;;3.10;;
51907;SDS011;39320;53.214;6.556;2023-11-21T00:10:14;7.50;;;3.47;;
51907;SDS011;39320;53.214;6.556;2023-11-21T00:12:41;5.25;;;3.00;;
51907;SDS011;39320;53.214;6.556;2023-11-21T00:15:07;5.40;;;2.85;;
51907;SDS011;39320;53.214;6.556;2023-11-21T00:17:37;4.47;;;3.05;;
51907;SDS011;39320;53.214;6.556;2023-11-21T00:20:03;9.15;;;2.75;;
51907;SDS011;39320;53.214;6.556;2023-11-21T00:22:35;5.35;;;3.00;;
51907;SDS011;39320;53.214;6.556;2023-11-21T00:25:01;6.07;;;2.92;;
51907;SDS011;39320;53.214;6.556;2023-11-21T00:27:29;5.70;;;3.30;;
51907;SDS011;39320;53.214;6.556;2023-11-21T00:29:55;5.38;;;3.20;;
51907;SDS011;39320;53.214;6.556;2023-11-21T00:32:23;5.57;;;3.28;;
51907;SDS011;39320;53.214;6.556;2023-11-21T00:34:49;4.95;;;3.45;;
51907;SDS011;39320;53.214;6.556;2023-11-21T00:37:15;6.88;;;3.33;;
51907;SDS011;39320;53.214;6.556;2023-11-21T00:39:43;8.10;;;3.30;;
51907;SDS011;39320;53.214;6.556;2023-11-21T00:42:09;6.88;;;3.55;;
51907;SDS011;39320;53.214;6.556;2023-11-21T00:44:37;5.03;;;3.33;;
51907;SDS011;39320;53.214;6.556;2023-11-21T00:47:04;5.32;;;3.63;;
51907;SDS011;39320;53.214;6.556;2023-11-21T00:49:30;6.50;;;3.90;;
51907;SDS011;39320;53.214;6.556;2023-11-21T00:51:56;6.68;;;3.42;;
51907;SDS011;39320;53.214;6.556;2023-11-21T00:54:23;4.68;;;3.33;;
51907;SDS011;39320;53.214;6.556;2023-11-21T00:56:49;5.63;;;3.58;;
51907;SDS011;39320;53.214;6.556;2023-11-21T00:59:15;4.55;;;3.35;;
51907;SDS011;39320;53.214;6.556;2023-11-21T01:01:40;6.63;;;4.18;;
51907;SDS011;39320;53.214;6.556;2023-11-21T01:04:06;5.13;;;3.20;;
51907;SDS011;39320;53.214;6.556;2023-11-21T01:06:32;5.55;;;3.72;;
51907;SDS011;39320;53.214;6.556;2023-11-21T01:08:59;5.38;;;3.63;;
51907;SDS011;39320;53.214;6.556;2023-11-21T01:11:27;5.50;;;3.80;;
51907;SDS011;39320;53.214;6.556;2023-11-21T01:13:55;5.13;;;3.67;;
51907;SDS011;39320;53.214;6.556;2023-11-21T01:16:21;5.65;;;3.90;;
51907;SDS011;39320;53.214;6.556;2023-11-21T01:18:47;9.10;;;4.43;;
51907;SDS011;39320;53.214;6.556;2023-11-21T01:21:15;7.03;;;4.13;;
51907;SDS011;39320;53.214;6.556;2023-11-21T01:23:41;4.30;;;3.90;;
51907;SDS011;39320;53.214;6.556;2023-11-21T01:26:07;6.80;;;3.80;;
51907;SDS011;39320;53.214;6.556;2023-11-21T01:28:33;6.25;;;4.30;;
51907;SDS011;39320;53.214;6.556;2023-11-21T01:30:59;8.38;;;4.28;;
51907;SDS011;39320;53.214;6.556;2023-11-21T01:33:24;4.53;;;3.70;;
51907;SDS011;39320;53.214;6.556;2023-11-21T01:35:51;6.78;;;4.57;;
51907;SDS011;39320;53.214;6.556;2023-11-21T01:38:20;6.50;;;4.15;;
51907;SDS011;39320;53.214;6.556;2023-11-21T01:40:47;6.05;;;4.22;;
51907;SDS011;39320;53.214;6.556;2023-11-21T01:43:12;5.13;;;4.07;;
51907;SDS011;39320;53.214;6.556;2023-11-21T01:45:38;6.40;;;4.40;;
51907;SDS011;39320;53.214;6.556;2023-11-21T01:48:04;6.32;;;4.65;;
51907;SDS011;39320;53.214;6.556;2023-11-21T01:50:32;6.88;;;3.88;;
51907;SDS011;39320;53.214;6.556;2023-11-21T01:52:58;5.82;;;4.40;;
51907;SDS011;39320;53.214;6.556;2023-11-21T01:55:26;5.00;;;3.92;;
51907;SDS011;39320;53.214;6.556;2023-11-21T01:57:52;8.05;;;4.72;;
51907;SDS011;39320;53.214;6.556;2023-11-21T02:00:19;7.20;;;4.82;;
51907;SDS011;39320;53.214;6.556;2023-11-21T02:02:45;5.75;;;3.90;;
51907;SDS011;39320;53.214;6.556;2023-11-21T02:05:12;7.00;;;4.63;;
51907;SDS011;39320;53.214;6.556;2023-11-21T02:07:40;7.57;;;4.40;;
51907;SDS011;39320;53.214;6.556;2023-11-21T02:10:07;6.10;;;4.05;;
51907;SDS011;39320;53.214;6.556;2023-11-21T02:12:34;6.97;;;4.38;;
51907;SDS011;39320;53.214;6.556;2023-11-21T02:15:03;6.10;;;4.57;;
51907;SDS011;39320;53.214;6.556;2023-11-21T02:17:35;6.13;;;4.03;;
51907;SDS011;39320;53.214;6.556;2023-11-21T02:20:01;8.25;;;5.53;;
51907;SDS011;39320;53.214;6.556;2023-11-21T02:22:30;5.40;;;4.68;;
51907;SDS011;39320;53.214;6.556;2023-11-21T02:24:57;6.18;;;4.70;;
51907;SDS011;39320;53.214;6.556;2023-11-21T02:27:23;8.27;;;4.85;;
51907;SDS011;39320;53.214;6.556;2023-11-21T02:29:49;5.45;;;4.55;;
51907;SDS011;39320;53.214;6.556;2023-11-21T02:32:15;6.90;;;4.43;;
51907;SDS011;39320;53.214;6.556;2023-11-21T02:34:44;6.22;;;4.88;;
51907;SDS011;39320;53.214;6.556;2023-11-21T02:37:10;7.25;;;4.88;;
51907;SDS011;39320;53.214;6.556;2023-11-21T02:39:36;6.75;;;4.47;;
51907;SDS011;39320;53.214;6.556;2023-11-21T02:42:03;7.82;;;4.35;;
51907;SDS011;39320;53.214;6.556;2023-11-21T02:44:29;7.18;;;5.35;;
51907;SDS011;39320;53.214;6.556;2023-11-21T02:46:54;7.88;;;5.32;;
51907;SDS011;39320;53.214;6.556;2023-11-21T02:49:22;7.57;;;4.70;;
51907;SDS011;39320;53.214;6.556;2023-11-21T02:51:48;7.05;;;4.60;;
51907;SDS011;39320;53.214;6.556;2023-11-21T02:54:14;7.88;;;4.75;;
51907;SDS011;39320;53.214;6.556;2023-11-21T02:56:42;5.97;;;4.65;;
51907;SDS011;39320;53.214;6.556;2023-11-21T02:59:07;7.15;;;4.88;;
51907;SDS011;39320;53.214;6.556;2023-11-21T03:01:34;5.72;;;4.03;;
51907;SDS011;39320;53.214;6.556;2023-11-21T03:03:59;6.70;;;5.15;;
51907;SDS011;39320;53.214;6.556;2023-11-21T03:06:26;6.97;;;5.40;;
51907;SDS011;39320;53.214;6.556;2023-11-21T03:08:52;5.25;;;4.75;;
51907;SDS011;39320;53.214;6.556;2023-11-21T03:11:18;7.25;;;5.78;;
51907;SDS011;39320;53.214;6.556;2023-11-21T03:13:46;7.15;;;5.68;;
51907;SDS011;39320;53.214;6.556;2023-11-21T03:16:12;8.23;;;5.78;;
51907;SDS011;39320;53.214;6.556;2023-11-21T03:18:38;8.27;;;5.25;;
51907;SDS011;39320;53.214;6.556;2023-11-21T03:21:04;7.13;;;5.38;;
51907;SDS011;39320;53.214;6.556;2023-11-21T03:23:31;9.88;;;5.82;;
51907;SDS011;39320;53.214;6.556;2023-11-21T03:26:12;8.23;;;5.38;;
51907;SDS011;39320;53.214;6.556;2023-11-21T03:28:38;7.35;;;5.32;;
51907;SDS011;39320;53.214;6.556;2023-11-21T03:31:04;9.23;;;5.70;;
51907;SDS011;39320;53.214;6.556;2023-11-21T03:33:31;7.68;;;5.65;;
51907;SDS011;39320;53.214;6.556;2023-11-21T03:35:57;7.80;;;5.50;;
51907;SDS011;39320;53.214;6.556;2023-11-21T03:38:23;7.72;;;5.40;;
51907;SDS011;39320;53.214;6.556;2023-11-21T03:40:49;9.25;;;6.03;;
51907;SDS011;39320;53.214;6.556;2023-11-21T03:43:15;7.53;;;5.20;;
51907;SDS011;39320;53.214;6.556;2023-11-21T03:45:41;7.55;;;5.55;;
51907;SDS011;39320;53.214;6.556;2023-11-21T03:48:07;6.28;;;5.60;;
51907;SDS011;39320;53.214;6.556;2023-11-21T03:50:34;6.75;;;4.82;;
51907;SDS011;39320;53.214;6.556;2023-11-21T03:53:00;6.38;;;4.65;;
51907;SDS011;39320;53.214;6.556;2023-11-21T03:55:25;8.50;;;5.00;;
51907;SDS011;39320;53.214;6.556;2023-11-21T03:57:51;5.85;;;4.53;;
51907;SDS011;39320;53.214;6.556;2023-11-21T04:00:17;5.80;;;4.40;;
51907;SDS011;39320;53.214;6.556;2023-11-21T04:02:45;7.07;;;4.68;;
51907;SDS011;39320;53.214;6.556;2023-11-21T04:05:11;7.03;;;5.22;;
51907;SDS011;39320;53.214;6.556;2023-11-21T04:07:37;7.65;;;5.43;;
51907;SDS011;39320;53.214;6.556;2023-11-21T04:10:04;7.75;;;4.95;;
51907;SDS011;39320;53.214;6.556;2023-11-21T04:12:33;7.43;;;5.20;;
51907;SDS011;39320;53.214;6.556;2023-11-21T04:15:02;7.38;;;4.68;;
51907;SDS011;39320;53.214;6.556;2023-11-21T04:17:28;8.18;;;5.57;;
51907;SDS011;39320;53.214;6.556;2023-11-21T04:19:54;8.45;;;5.40;;
51907;SDS011;39320;53.214;6.556;2023-11-21T04:22:20;7.28;;;5.35;;
51907;SDS011;39320;53.214;6.556;2023-11-21T04:24:46;7.38;;;6.25;;
51907;SDS011;39320;53.214;6.556;2023-11-21T04:27:11;7.72;;;5.60;;
51907;SDS011;39320;53.214;6.556;2023-11-21T04:29:38;5.55;;;5.05;;
51907;SDS011;39320;53.214;6.556;2023-11-21T04:32:04;7.45;;;5.43;;
51907;SDS011;39320;53.214;6.556;2023-11-21T04:34:30;5.90;;;5.30;;
51907;SDS011;39320;53.214;6.556;2023-11-21T04:36:56;7.50;;;5.60;;
51907;SDS011;39320;53.214;6.556;2023-11-21T04:39:22;6.57;;;5.00;;
51907;SDS011;39320;53.214;6.556;2023-11-21T04:41:49;5.85;;;4.47;;
51907;SDS011;39320;53.214;6.556;2023-11-21T04:44:15;5.97;;;5.38;;
51907;SDS011;39320;53.214;6.556;2023-11-21T04:46:42;7.80;;;4.80;;
51907;SDS011;39320;53.214;6.556;2023-11-21T04:49:07;6.20;;;5.68;;
51907;SDS011;39320;53.214;6.556;2023-11-21T04:51:33;10.23;;;5.38;;
51907;SDS011;39320;53.214;6.556;2023-11-21T04:53:59;7.28;;;5.43;;
51907;SDS011;39320;53.214;6.556;2023-11-21T04:56:25;5.93;;;4.80;;
51907;SDS011;39320;53.214;6.556;2023-11-21T04:58:51;6.50;;;5.35;;
51907;SDS011;39320;53.214;6.556;2023-11-21T05:01:18;5.65;;;4.93;;
51907;SDS011;39320;53.214;6.556;2023-11-21T05:03:44;7.18;;;5.15;;
51907;SDS011;39320;53.214;6.556;2023-11-21T05:06:12;7.95;;;5.22;;
51907;SDS011;39320;53.214;6.556;2023-11-21T05:08:39;5.35;;;4.85;;
51907;SDS011;39320;53.214;6.556;2023-11-21T05:11:05;5.82;;;5.25;;
51907;SDS011;39320;53.214;6.556;2023-11-21T05:13:33;7.78;;;5.43;;
51907;SDS011;39320;53.214;6.556;2023-11-21T05:15:59;7.93;;;4.85;;
51907;SDS011;39320;53.214;6.556;2023-11-21T05:18:25;6.72;;;4.97;;
51907;SDS011;39320;53.214;6.556;2023-11-21T05:20:55;6.13;;;5.53;;
51907;SDS011;39320;53.214;6.556;2023-11-21T05:23:21;6.15;;;5.40;;
51907;SDS011;39320;53.214;6.556;2023-11-21T05:25:47;6.30;;;4.95;;
51907;SDS011;39320;53.214;6.556;2023-11-21T05:28:13;5.22;;;4.72;;
51907;SDS011;39320;53.214;6.556;2023-11-21T05:30:38;7.53;;;5.95;;
51907;SDS011;39320;53.214;6.556;2023-11-21T05:33:04;5.82;;;4.75;;
51907;SDS011;39320;53.214;6.556;2023-11-21T05:35:30;6.10;;;4.70;;
51907;SDS011;39320;53.214;6.556;2023-11-21T05:37:56;7.22;;;5.22;;
51907;SDS011;39320;53.214;6.556;2023-11-21T05:40:22;5.00;;;4.50;;
51907;SDS011;39320;53.214;6.556;2023-11-21T05:42:48;4.82;;;4.15;;
51907;SDS011;39320;53.214;6.556;2023-11-21T05:45:14;4.50;;;4.10;;
51907;SDS011;39320;53.214;6.556;2023-11-21T05:47:41;6.22;;;4.70;;
51907;SDS011;39320;53.214;6.556;2023-11-21T05:50:11;6.50;;;5.53;;
51907;SDS011;39320;53.214;6.556;2023-11-21T05:52:41;5.70;;;4.95;;
51907;SDS011;39320;53.214;6.556;2023-11-21T05:55:11;5.53;;;5.03;;
51907;SDS011;39320;53.214;6.556;2023-11-21T05:57:38;5.57;;;5.00;;
51907;SDS011;39320;53.214;6.556;2023-11-21T06:00:05;5.47;;;4.65;;
51907;SDS011;39320;53.214;6.556;2023-11-21T06:02:55;5.95;;;4.68;;
51907;SDS011;39320;53.214;6.556;2023-11-21T06:05:23;7.20;;;5.22;;
51907;SDS011;39320;53.214;6.556;2023-11-21T06:07:50;6.22;;;5.38;;
51907;SDS011;39320;53.214;6.556;2023-11-21T06:10:17;7.45;;;5.80;;
51907;SDS011;39320;53.214;6.556;2023-11-21T06:12:45;6.00;;;5.40;;
51907;SDS011;39320;53.214;6.556;2023-11-21T06:15:10;7.03;;;6.20;;
51907;SDS011;39320;53.214;6.556;2023-11-21T06:17:38;6.20;;;5.60;;
51907;SDS011;39320;53.214;6.556;2023-11-21T06:20:05;6.65;;;5.80;;
51907;SDS011;39320;53.214;6.556;2023-11-21T06:22:40;6.35;;;5.75;;
51907;SDS011;39320;53.214;6.556;2023-11-21T06:25:09;7.22;;;6.53;;
51907;SDS011;39320;53.214;6.556;2023-11-21T06:27:43;6.60;;;5.95;;
51907;SDS011;39320;53.214;6.556;2023-11-21T06:30:10;6.80;;;6.13;;
51907;SDS011;39320;53.214;6.556;2023-11-21T06:32:37;7.13;;;6.45;;
51907;SDS011;39320;53.214;6.556;2023-11-21T06:35:03;7.18;;;6.43;;
51907;SDS011;39320;53.214;6.556;2023-11-21T06:37:30;7.43;;;6.72;;
51907;SDS011;39320;53.214;6.556;2023-11-21T06:39:57;7.13;;;6.43;;
51907;SDS011;39320;53.214;6.556;2023-11-21T06:42:24;6.95;;;6.22;;
51907;SDS011;39320;53.214;6.556;2023-11-21T06:44:50;6.97;;;6.28;;
51907;SDS011;39320;53.214;6.556;2023-11-21T06:47:21;6.22;;;5.63;;
51907;SDS011;39320;53.214;6.556;2023-11-21T06:49:50;4.63;;;4.20;;
51907;SDS011;39320;53.214;6.556;2023-11-21T06:52:16;5.25;;;4.70;;
51907;SDS011;39320;53.214;6.556;2023-11-21T06:54:43;5.03;;;4.53;;
51907;SDS011;39320;53.214;6.556;2023-11-21T06:57:10;5.43;;;4.57;;
51907;SDS011;39320;53.214;6.556;2023-11-21T06:59:36;5.93;;;5.03;;
51907;SDS011;39320;53.214;6.556;2023-11-21T07:02:02;5.13;;;4.68;;
51907;SDS011;39320;53.214;6.556;2023-11-21T07:04:31;5.10;;;4.60;;
51907;SDS011;39320;53.214;6.556;2023-11-21T07:07:00;5.50;;;5.00;;
51907;SDS011;39320;53.214;6.556;2023-11-21T07:09:25;5.93;;;5.13;;
51907;SDS011;39320;53.214;6.556;2023-11-21T07:11:51;6.18;;;5.60;;
51907;SDS011;39320;53.214;6.556;2023-11-21T07:14:18;5.65;;;5.15;;
51907;SDS011;39320;53.214;6.556;2023-11-21T07:16:45;6.75;;;6.05;;
51907;SDS011;39320;53.214;6.556;2023-11-21T07:19:11;6.43;;;5.82;;
51907;SDS011;39320;53.214;6.556;2023-11-21T07:21:38;7.68;;;6.55;;
51907;SDS011;39320;53.214;6.556;2023-11-21T07:24:05;7.38;;;6.68;;
51907;SDS011;39320;53.214;6.556;2023-11-21T07:26:31;7.85;;;7.13;;
51907;SDS011;39320;53.214;6.556;2023-11-21T07:28:58;7.57;;;6.78;;
51907;SDS011;39320;53.214;6.556;2023-11-21T07:31:24;8.27;;;7.53;;
51907;SDS011;39320;53.214;6.556;2023-11-21T07:33:51;8.57;;;7.68;;
51907;SDS011;39320;53.214;6.556;2023-11-21T07:36:17;8.02;;;7.32;;
51907;SDS011;39320;53.214;6.556;2023-11-21T07:38:46;8.18;;;7.28;;
51907;SDS011;39320;53.214;6.556;2023-11-21T07:41:13;8.25;;;7.45;;
51907;SDS011;39320;53.214;6.556;2023-11-21T07:43:42;7.28;;;6.57;;
51907;SDS011;39320;53.214;6.556;2023-11-21T07:46:12;6.85;;;6.25;;
51907;SDS011;39320;53.214;6.556;2023-11-21T07:48:38;6.75;;;6.15;;
51907;SDS011;39320;53.214;6.556;2023-11-21T07:51:05;7.25;;;6.45;;
51907;SDS011;39320;53.214;6.556;2023-11-21T07:53:34;8.02;;;7.22;;
51907;SDS011;39320;53.214;6.556;2023-11-21T07:56:07;7.22;;;6.60;;
51907;SDS011;39320;53.214;6.556;2023-11-21T07:58:34;8.52;;;7.68;;
51907;SDS011;39320;53.214;6.556;2023-11-21T08:01:02;6.97;;;6.38;;
51907;SDS011;39320;53.214;6.556;2023-11-21T08:03:29;6.95;;;6.35;;
51907;SDS011;39320;53.214;6.556;2023-11-21T08:05:56;7.05;;;6.45;;
51907;SDS011;39320;53.214;6.556;2023-11-21T08:08:22;7.20;;;6.60;;
51907;SDS011;39320;53.214;6.556;2023-11-21T08:10:49;8.07;;;7.38;;
51907;SDS011;39320;53.214;6.556;2023-11-21T08:13:24;8.38;;;7.57;;
51907;SDS011;39320;53.214;6.556;2023-11-21T08:15:53;8.57;;;7.88;;
51907;SDS011;39320;53.214;6.556;2023-11-21T08:18:20;7.25;;;6.63;;
51907;SDS011;39320;53.214;6.556;2023-11-21T08:20:45;8.35;;;7.45;;
51907;SDS011;39320;53.214;6.556;2023-11-21T08:23:14;8.27;;;7.47;;
51907;SDS011;39320;53.214;6.556;2023-11-21T08:25:43;8.57;;;7.68;;
51907;SDS011;39320;53.214;6.556;2023-11-21T08:28:09;8.27;;;7.57;;
51907;SDS011;39320;53.214;6.556;2023-11-21T08:30:35;8.13;;;7.32;;
51907;SDS011;39320;53.214;6.556;2023-11-21T08:33:01;7.38;;;6.78;;
51907;SDS011;39320;53.214;6.556;2023-11-21T08:35:28;7.47;;;6.78;;
51907;SDS011;39320;53.214;6.556;2023-11-21T08:37:55;7.65;;;6.95;;
51907;SDS011;39320;53.214;6.556;2023-11-21T08:40:20;7.50;;;6.80;;
51907;SDS011;39320;53.214;6.556;2023-11-21T08:42:47;7.03;;;6.43;;
51907;SDS011;39320;53.214;6.556;2023-11-21T08:45:13;7.00;;;6.40;;
51907;SDS011;39320;53.214;6.556;2023-11-21T08:47:43;6.93;;;6.32;;
51907;SDS011;39320;53.214;6.556;2023-11-21T08:50:12;5.97;;;5.38;;
51907;SDS011;39320;53.214;6.556;2023-11-21T08:52:38;5.82;;;5.32;;
51907;SDS011;39320;53.214;6.556;2023-11-21T08:55:05;6.03;;;5.53;;
51907;SDS011;39320;53.214;6.556;2023-11-21T08:57:37;5.55;;;5.05;;
51907;SDS011;39320;53.214;6.556;2023-11-21T09:00:06;5.45;;;5.03;;
51907;SDS011;39320;53.214;6.556;2023-11-21T09:02:36;4.90;;;4.50;;
51907;SDS011;39320;53.214;6.556;2023-11-21T09:05:08;5.28;;;4.88;;
51907;SDS011;39320;53.214;6.556;2023-11-21T09:07:38;4.93;;;4.53;;
51907;SDS011;39320;53.214;6.556;2023-11-21T09:10:06;5.50;;;5.00;;
51907;SDS011;39320;53.214;6.556;2023-11-21T09:12:32;5.07;;;4.65;;
51907;SDS011;39320;53.214;6.556;2023-11-21T09:15:02;5.13;;;4.63;;
51907;SDS011;39320;53.214;6.556;2023-11-21T09:17:29;5.80;;;5.20;;
51907;SDS011;39320;53.214;6.556;2023-11-21T09:19:55;5.53;;;5.03;;
51907;SDS011;39320;53.214;6.556;2023-11-21T09:22:22;5.15;;;4.65;;
51907;SDS011;39320;53.214;6.556;2023-11-21T09:24:50;4.93;;;4.53;;
51907;SDS011;39320;53.214;6.556;2023-11-21T09:27:16;4.60;;;4.20;;
51907;SDS011;39320;53.214;6.556;2023-11-21T09:29:42;5.03;;;4.63;;
51907;SDS011;39320;53.214;6.556;2023-11-21T09:32:08;5.00;;;4.60;;
51907;SDS011;39320;53.214;6.556;2023-11-21T09:34:37;5.25;;;4.82;;
51907;SDS011;39320;53.214;6.556;2023-11-21T09:37:06;5.78;;;5.28;;
51907;SDS011;39320;53.214;6.556;2023-11-21T09:39:32;5.25;;;4.85;;
51907;SDS011;39320;53.214;6.556;2023-11-21T09:42:04;4.25;;;3.95;;
51907;SDS011;39320;53.214;6.556;2023-11-21T09:47:05;5.40;;;4.97;;
51907;SDS011;39320;53.214;6.556;2023-11-21T09:49:35;4.80;;;4.40;;
51907;SDS011;39320;53.214;6.556;2023-11-21T09:52:03;4.45;;;4.15;;
51907;SDS011;39320;53.214;6.556;2023-11-21T09:54:31;4.07;;;3.67;;
51907;SDS011;39320;53.214;6.556;2023-11-21T09:56:59;4.07;;;3.78;;
51907;SDS011;39320;53.214;6.556;2023-11-21T09:59:25;4.50;;;4.10;;
51907;SDS011;39320;53.214;6.556;2023-11-21T10:01:57;4.25;;;3.85;;
51907;SDS011;39320;53.214;6.556;2023-11-21T10:04:23;3.95;;;3.53;;
51907;SDS011;39320;53.214;6.556;2023-11-21T10:06:51;3.72;;;3.42;;
51907;SDS011;39320;53.214;6.556;2023-11-21T10:09:19;3.70;;;3.40;;
51907;SDS011;39320;53.214;6.556;2023-11-21T10:11:46;4.05;;;3.75;;
51907;SDS011;39320;53.214;6.556;2023-11-21T10:14:14;4.20;;;3.85;;
51907;SDS011;39320;53.214;6.556;2023-11-21T10:16:44;3.80;;;3.50;;
51907;SDS011;39320;53.214;6.556;2023-11-21T10:19:12;3.70;;;3.40;;
51907;SDS011;39320;53.214;6.556;2023-11-21T10:21:38;3.63;;;3.33;;
51907;SDS011;39320;53.214;6.556;2023-11-21T10:24:05;4.60;;;3.47;;
51907;SDS011;39320;53.214;6.556;2023-11-21T10:26:31;3.30;;;3.00;;
51907;SDS011;39320;53.214;6.556;2023-11-21T10:28:59;3.45;;;3.15;;
51907;SDS011;39320;53.214;6.556;2023-11-21T10:31:31;4.03;;;3.72;;
51907;SDS011;39320;53.214;6.556;2023-11-21T10:36:44;3.13;;;2.90;;
51907;SDS011;39320;53.214;6.556;2023-11-21T10:39:17;4.28;;;3.88;;
51907;SDS011;39320;53.214;6.556;2023-11-21T10:41:44;3.55;;;3.25;;
51907;SDS011;39320;53.214;6.556;2023-11-21T10:44:14;3.85;;;3.38;;
51907;SDS011;39320;53.214;6.556;2023-11-21T10:46:46;3.42;;;3.13;;
51907;SDS011;39320;53.214;6.556;2023-11-21T10:49:16;3.80;;;3.50;;
51907;SDS011;39320;53.214;6.556;2023-11-21T10:51:46;3.35;;;3.15;;
51907;SDS011;39320;53.214;6.556;2023-11-21T10:54:18;4.20;;;2.95;;
51907;SDS011;39320;53.214;6.556;2023-11-21T10:56:45;3.53;;;3.22;;
51907;SDS011;39320;53.214;6.556;2023-11-21T10:59:16;3.55;;;3.30;;
51907;SDS011;39320;53.214;6.556;2023-11-21T11:01:44;3.58;;;3.28;;
51907;SDS011;39320;53.214;6.556;2023-11-21T11:04:14;3.50;;;3.20;;
51907;SDS011;39320;53.214;6.556;2023-11-21T11:06:43;3.70;;;3.40;;
51907;SDS011;39320;53.214;6.556;2023-11-21T11:09:13;3.40;;;3.10;;
51907;SDS011;39320;53.214;6.556;2023-11-21T11:11:42;3.38;;;3.08;;
51907;SDS011;39320;53.214;6.556;2023-11-21T11:14:12;3.53;;;3.22;;
51907;SDS011;39320;53.214;6.556;2023-11-21T11:16:39;4.13;;;3.72;;
51907;SDS011;39320;53.214;6.556;2023-11-21T11:19:06;4.03;;;3.72;;
51907;SDS011;39320;53.214;6.556;2023-11-21T11:26:47;2.90;;;2.70;;
51907;SDS011;39320;53.214;6.556;2023-11-21T11:34:45;3.00;;;2.80;;
51907;SDS011;39320;53.214;6.556;2023-11-21T11:37:15;3.30;;;2.88;;
51907;SDS011;39320;53.214;6.556;2023-11-21T11:39:41;4.53;;;3.80;;
51907;SDS011;39320;53.214;6.556;2023-11-21T11:42:14;3.63;;;3.33;;
51907;SDS011;39320;53.214;6.556;2023-11-21T11:49:55;2.75;;;2.55;;
51907;SDS011;39320;53.214;6.556;2023-11-21T11:52:34;4.03;;;3.40;;
51907;SDS011;39320;53.214;6.556;2023-11-21T11:55:02;3.28;;;2.65;;
51907;SDS011;39320;53.214;6.556;2023-11-21T11:57:33;3.15;;;2.85;;
51907;SDS011;39320;53.214;6.556;2023-11-21T12:02:41;3.10;;;2.90;;
51907;SDS011;39320;53.214;6.556;2023-11-21T12:05:15;3.05;;;2.83;;
51907;SDS011;39320;53.214;6.556;2023-11-21T12:07:54;3.03;;;2.83;;
51907;SDS011;39320;53.214;6.556;2023-11-21T12:10:23;3.42;;;3.17;;
51907;SDS011;39320;53.214;6.556;2023-11-21T12:12:56;3.33;;;3.03;;
51907;SDS011;39320;53.214;6.556;2023-11-21T12:15:24;5.20;;;3.33;;
51907;SDS011;39320;53.214;6.556;2023-11-21T12:17:50;2.90;;;2.55;;
51907;SDS011;39320;53.214;6.556;2023-11-21T12:20:23;2.80;;;2.60;;
51907;SDS011;39320;53.214;6.556;2023-11-21T12:22:51;3.38;;;3.08;;
51907;SDS011;39320;53.214;6.556;2023-11-21T12:25:18;3.38;;;3.08;;
51907;SDS011;39320;53.214;6.556;2023-11-21T12:27:48;3.88;;;3.58;;
51907;SDS011;39320;53.214;6.556;2023-11-21T12:30:15;3.40;;;3.05;;
51907;SDS011;39320;53.214;6.556;2023-11-21T12:32:47;2.80;;;2.53;;
51907;SDS011;39320;53.214;6.556;2023-11-21T12:35:16;2.92;;;2.65;;
51907;SDS011;39320;53.214;6.556;2023-11-21T12:37:44;3.15;;;2.85;;
51907;SDS011;39320;53.214;6.556;2023-11-21T12:40:12;3.10;;;2.80;;
51907;SDS011;39320;53.214;6.556;2023-11-21T12:42:47;2.90;;;2.70;;
51907;SDS011;39320;53.214;6.556;2023-11-21T12:47:45;2.80;;;2.58;;
51907;SDS011;39320;53.214;6.556;2023-11-21T12:50:20;4.20;;;3.25;;
51907;SDS011;39320;53.214;6.556;2023-11-21T12:52:54;3.15;;;2.85;;
51907;SDS011;39320;53.214;6.556;2023-11-21T12:55:24;2.92;;;2.72;;
51907;SDS011;39320;53.214;6.556;2023-11-21T12:57:52;3.58;;;3.28;;
51907;SDS011;39320;53.214;6.556;2023-11-21T13:00:32;3.50;;;3.20;;
51907;SDS011;39320;53.214;6.556;2023-11-21T13:03:02;3.30;;;3.00;;
51907;SDS011;39320;53.214;6.556;2023-11-21T13:05:31;3.03;;;2.83;;
51907;SDS011;39320;53.214;6.556;2023-11-21T13:08:05;3.40;;;3.05;;
51907;SDS011;39320;53.214;6.556;2023-11-21T13:10:37;3.35;;;3.00;;
51907;SDS011;39320;53.214;6.556;2023-11-21T13:13:07;3.47;;;2.72;;
51907;SDS011;39320;53.214;6.556;2023-11-21T13:15:34;3.05;;;2.75;;
51907;SDS011;39320;53.214;6.556;2023-11-21T13:18:05;3.28;;;3.08;;
51907;SDS011;39320;53.214;6.556;2023-11-21T13:20:32;3.53;;;2.67;;
51907;SDS011;39320;53.214;6.556;2023-11-21T13:22:59;3.30;;;3.00;;
51907;SDS011;39320;53.214;6.556;2023-11-21T13:25:26;3.00;;;2.80;;
51907;SDS011;39320;53.214;6.556;2023-11-21T13:27:53;2.80;;;2.60;;
51907;SDS011;39320;53.214;6.556;2023-11-21T13:30:20;3.60;;;3.30;;
51907;SDS011;39320;53.214;6.556;2023-11-21T13:32:58;3.08;;;2.78;;
51907;SDS011;39320;53.214;6.556;2023-11-21T13:35:30;2.80;;;2.60;;
51907;SDS011;39320;53.214;6.556;2023-11-21T13:38:10;3.40;;;3.10;;
51907;SDS011;39320;53.214;6.556;2023-11-21T13:40:37;3.35;;;2.88;;
51907;SDS011;39320;53.214;6.556;2023-11-21T13:43:12;2.50;;;2.30;;
51907;SDS011;39320;53.214;6.556;2023-11-21T13:45:42;3.05;;;2.67;;
51907;SDS011;39320;53.214;6.556;2023-11-21T13:48:10;3.80;;;3.00;;
51907;SDS011;39320;53.214;6.556;2023-11-21T13:50:39;3.15;;;2.50;;
51907;SDS011;39320;53.214;6.556;2023-11-21T13:53:13;3.03;;;2.67;;
51907;SDS011;39320;53.214;6.556;2023-11-21T13:55:48;3.20;;;2.90;;
51907;SDS011;39320;53.214;6.556;2023-11-21T13:58:16;2.53;;;2.33;;
51907;SDS011;39320;53.214;6.556;2023-11-21T14:00:45;3.22;;;2.92;;
51907;SDS011;39320;53.214;6.556;2023-11-21T14:03:12;3.17;;;2.65;;
51907;SDS011;39320;53.214;6.556;2023-11-21T14:05:46;2.47;;;2.28;;
51907;SDS011;39320;53.214;6.556;2023-11-21T14:08:16;2.70;;;2.35;;
51907;SDS011;39320;53.214;6.556;2023-11-21T14:10:49;2.63;;;2.42;;
51907;SDS011;39320;53.214;6.556;2023-11-21T14:13:23;3.00;;;2.45;;
51907;SDS011;39320;53.214;6.556;2023-11-21T14:15:49;2.45;;;2.25;;
51907;SDS011;39320;53.214;6.556;2023-11-21T14:18:22;2.97;;;2.55;;
51907;SDS011;39320;53.214;6.556;2023-11-21T14:20:55;2.40;;;2.20;;
51907;SDS011;39320;53.214;6.556;2023-11-21T14:23:21;2.50;;;2.38;;
51907;SDS011;39320;53.214;6.556;2023-11-21T14:25:48;2.40;;;2.20;;
51907;SDS011;39320;53.214;6.556;2023-11-21T14:28:18;2.42;;;2.05;;
51907;SDS011;39320;53.214;6.556;2023-11-21T14:30:44;2.40;;;2.20;;
51907;SDS011;39320;53.214;6.556;2023-11-21T14:33:11;2.17;;;1.70;;
51907;SDS011;39320;53.214;6.556;2023-11-21T14:35:37;2.15;;;1.80;;
51907;SDS011;39320;53.214;6.556;2023-11-21T14:38:03;1.95;;;1.73;;
51907;SDS011;39320;53.214;6.556;2023-11-21T14:40:33;2.75;;;2.50;;
51907;SDS011;39320;53.214;6.556;2023-11-21T14:43:01;2.22;;;2.00;;
51907;SDS011;39320;53.214;6.556;2023-11-21T14:45:30;2.20;;;2.00;;
51907;SDS011;39320;53.214;6.556;2023-11-21T14:47:57;2.30;;;2.10;;
51907;SDS011;39320;53.214;6.556;2023-11-21T14:50:33;2.38;;;2.17;;
51907;SDS011;39320;53.214;6.556;2023-11-21T14:55:40;2.75;;;2.55;;
51907;SDS011;39320;53.214;6.556;2023-11-21T14:58:16;2.15;;;1.90;;
51907;SDS011;39320;53.214;6.556;2023-11-21T15:01:00;2.42;;;2.25;;
51907;SDS011;39320;53.214;6.556;2023-11-21T15:03:27;2.50;;;2.30;;
51907;SDS011;39320;53.214;6.556;2023-11-21T15:05:57;2.63;;;1.90;;
51907;SDS011;39320;53.214;6.556;2023-11-21T15:08:50;2.17;;;1.98;;
51907;SDS011;39320;53.214;6.556;2023-11-21T15:11:31;2.30;;;2.08;;
51907;SDS011;39320;53.214;6.556;2023-11-21T15:13:57;2.88;;;2.08;;
51907;SDS011;39320;53.214;6.556;2023-11-21T15:16:23;2.70;;;2.05;;
51907;SDS011;39320;53.214;6.556;2023-11-21T15:18:51;2.92;;;2.00;;
51907;SDS011;39320;53.214;6.556;2023-11-21T15:21:20;3.10;;;2.40;;